YLIL weather

Lilydale Airport
Victoria, Australia

Public forecast

Using degrees Celsius for public forecast. Weather courtesy of forecast.io.

METAR (pilot weather report)

Closest report is Melbourne Essendon Airport, 22.2 nm (41.1 km) W. Retrieved 2019/03/22 16:00 UTC (17 minutes ago):

YMEN 221600Z AUTO 07006KT 9999 // NCD 21/14 Q1009

TAF (pilot weather forecast)

Forecast is more than 12 hours old.

Closest forecast is Melbourne International Airport, 24.9 nm (46.2 km) W. Retrieved 2019/03/21 18:36 UTC (22 hours ago):

TAF YMML 211719Z 2118/2224 27006KT 9999 BKN005 FM212300 VRB05KT 9999 BKN010 FM220100 02008KT CAVOK FM220500 VRB05KT 9999 -SHRA SCT060 FM221000 02010KT CAVOK FM221600 01018G28KT CAVOK PROB30 TEMPO 2205/2210 VRB15G25KT 3000 TSRA BKN040 FEW060CB